Terminal Aerodrome Forecast
Issued by NWS Corpus Christi, TX

Current Version | Previous Version | Text Only | Print | Product List | Glossary Off
Versions: 1 2 3 4 5 6 7 8 9 10 11 12 13 14 15 16 17 18

000
FTUS44 KCRP 251735
TAFCRP
TAF
KCRP 251735Z 2518/2618 04015G20KT P6SM SKC
     FM252000 08014KT P6SM SCT025
     FM260600 06003KT P6SM FEW001 SCT025
      TEMPO 2610/2612 SCT001 BKN025
     FM261500 14008G15KT P6SM SCT025 BKN250
     FM261700 16015G25KT P6SM VCSH SCT030 BKN250=

USA.gov is the U.S. government's official web portal to all federal, state and local government web resources and services.